createdAt,value
2023-03-27T00:00:13.169Z,52.80
2023-03-27T00:02:41.986Z,52.70
2023-03-27T00:05:11.248Z,52.60
2023-03-27T00:07:41.554Z,52.60
2023-03-27T00:10:10.851Z,52.80
2023-03-27T00:12:39.217Z,52.80
2023-03-27T00:15:10.111Z,52.80
2023-03-27T00:17:38.949Z,52.30
2023-03-27T00:20:07.878Z,52.40
2023-03-27T00:22:36.978Z,52.70
2023-03-27T00:25:06.254Z,52.40
2023-03-27T00:27:36.105Z,52.50
2023-03-27T00:30:06.702Z,52.70
2023-03-27T00:32:36.370Z,52.70
2023-03-27T00:35:05.982Z,52.60
2023-03-27T00:37:34.311Z,52.80
2023-03-27T00:40:08.013Z,52.80
2023-03-27T00:42:36.675Z,53.10
2023-03-27T00:45:06.229Z,53.00
2023-03-27T00:47:38.668Z,52.80
2023-03-27T00:50:11.618Z,52.90
2023-03-27T00:52:41.754Z,53.20
2023-03-27T00:55:15.337Z,53.00
2023-03-27T00:57:45.407Z,53.10
2023-03-27T01:00:17.021Z,53.30
2023-03-27T01:02:51.360Z,53.60
2023-03-27T01:05:21.459Z,53.10
2023-03-27T01:08:00.588Z,52.80
2023-03-27T01:10:36.945Z,52.80
2023-03-27T01:13:18.854Z,52.70
2023-03-27T01:15:53.950Z,52.80
2023-03-27T01:18:35.467Z,52.90
2023-03-27T01:21:36.305Z,52.70
2023-03-27T01:24:25.216Z,53.00
2023-03-27T01:27:02.192Z,52.90
2023-03-27T01:29:56.730Z,52.90
2023-03-27T01:33:02.127Z,52.90
2023-03-27T01:35:57.590Z,52.70
2023-03-27T01:38:59.185Z,52.60
2023-03-27T01:41:33.434Z,52.50
2023-03-27T01:44:05.557Z,52.90
2023-03-27T01:46:41.882Z,52.90
2023-03-27T01:49:14.133Z,53.10
2023-03-27T01:51:48.277Z,52.50
2023-03-27T01:54:21.734Z,52.60
2023-03-27T01:56:56.413Z,52.50
2023-03-27T01:59:28.706Z,52.60
2023-03-27T02:02:02.238Z,52.50
2023-03-27T02:04:38.393Z,52.20
2023-03-27T02:07:12.207Z,52.30
2023-03-27T02:09:45.158Z,52.30
2023-03-27T02:12:19.728Z,52.60
2023-03-27T02:14:53.744Z,51.80
2023-03-27T02:17:26.193Z,52.00
2023-03-27T02:19:59.572Z,52.10
2023-03-27T02:22:37.559Z,52.00
2023-03-27T02:25:23.023Z,52.10
2023-03-27T02:27:59.986Z,51.70
2023-03-27T02:30:33.511Z,51.60
2023-03-27T02:33:09.136Z,52.20
2023-03-27T02:35:47.137Z,51.60
2023-03-27T02:38:23.628Z,51.70
2023-03-27T02:41:01.031Z,51.50
2023-03-27T02:43:33.730Z,51.70
2023-03-27T02:46:06.543Z,51.50
2023-03-27T02:48:36.371Z,51.50
2023-03-27T02:51:08.541Z,51.40
2023-03-27T02:53:42.684Z,51.60
2023-03-27T02:56:13.008Z,51.70
2023-03-27T02:58:50.039Z,51.30
2023-03-27T03:01:22.182Z,51.40
2023-03-27T03:03:58.401Z,51.40
2023-03-27T03:06:30.154Z,51.60
2023-03-27T03:09:03.402Z,51.30
2023-03-27T03:11:32.201Z,51.40
2023-03-27T03:14:01.785Z,51.60
2023-03-27T03:16:30.727Z,51.40
2023-03-27T03:18:59.272Z,51.40
2023-03-27T03:21:27.437Z,51.60
2023-03-27T03:23:58.527Z,51.70
2023-03-27T03:26:27.665Z,51.50
2023-03-27T03:29:00.824Z,51.50
2023-03-27T03:31:43.090Z,51.80
2023-03-27T03:34:13.017Z,51.90
2023-03-27T03:36:42.971Z,51.90
2023-03-27T03:39:12.775Z,51.80
2023-03-27T03:41:41.531Z,51.70
2023-03-27T03:44:11.008Z,51.90
2023-03-27T03:46:41.579Z,52.00
2023-03-27T03:49:10.158Z,51.90
2023-03-27T03:51:38.637Z,52.10
2023-03-27T03:54:09.329Z,51.90
2023-03-27T03:56:41.599Z,51.70
2023-03-27T03:59:11.768Z,51.70
2023-03-27T04:01:41.377Z,51.60
2023-03-27T04:04:09.728Z,52.00
2023-03-27T04:06:38.958Z,51.80
2023-03-27T04:09:07.518Z,52.00
2023-03-27T04:11:36.334Z,51.90
2023-03-27T04:14:04.543Z,51.80
2023-03-27T04:16:34.060Z,51.80
2023-03-27T04:19:03.757Z,51.70
2023-03-27T04:21:31.998Z,51.80
2023-03-27T04:24:02.550Z,51.70
2023-03-27T04:26:31.208Z,51.90
2023-03-27T04:28:59.513Z,51.80
2023-03-27T04:31:28.542Z,51.70
2023-03-27T04:33:56.807Z,51.40
2023-03-27T04:36:26.518Z,51.30
2023-03-27T04:38:55.497Z,51.40
2023-03-27T04:41:23.809Z,51.10
2023-03-27T04:43:52.162Z,50.90
2023-03-27T04:46:20.367Z,50.60
2023-03-27T04:48:49.203Z,50.80
2023-03-27T04:51:17.963Z,50.20
2023-03-27T04:53:47.564Z,50.00
2023-03-27T04:56:16.205Z,50.10
2023-03-27T04:58:45.764Z,49.80
2023-03-27T05:01:14.509Z,49.50
2023-03-27T05:03:42.982Z,49.70
2023-03-27T05:06:12.182Z,49.10
2023-03-27T05:08:40.664Z,49.40
2023-03-27T05:11:10.826Z,49.00
2023-03-27T05:13:39.273Z,49.20
2023-03-27T05:16:09.968Z,48.60
2023-03-27T05:18:41.744Z,48.70
2023-03-27T05:21:10.765Z,48.80
2023-03-27T05:23:39.584Z,48.90
2023-03-27T05:26:08.441Z,48.60
2023-03-27T05:28:39.816Z,48.40
2023-03-27T05:31:10.677Z,48.20
2023-03-27T05:33:39.987Z,48.50
2023-03-27T05:36:09.929Z,48.50
2023-03-27T05:38:39.481Z,48.10
2023-03-27T05:41:08.658Z,48.40
2023-03-27T05:43:38.301Z,48.30
2023-03-27T05:46:06.920Z,47.80
2023-03-27T05:48:35.855Z,48.50
2023-03-27T05:51:04.568Z,48.30
2023-03-27T05:53:33.011Z,48.30
2023-03-27T05:56:02.894Z,48.50
2023-03-27T05:58:31.638Z,48.30
2023-03-27T06:01:02.581Z,48.50
2023-03-27T06:03:31.232Z,48.10
2023-03-27T06:06:01.047Z,48.10
2023-03-27T06:08:30.069Z,47.90
2023-03-27T06:10:58.652Z,48.00
2023-03-27T06:13:27.381Z,48.00
2023-03-27T06:15:56.530Z,48.10
2023-03-27T06:18:26.421Z,47.90
2023-03-27T06:20:55.684Z,47.50
2023-03-27T06:23:24.225Z,47.70
2023-03-27T06:25:53.277Z,47.70
2023-03-27T06:28:21.737Z,47.70
2023-03-27T06:30:51.138Z,47.70
2023-03-27T06:33:19.554Z,47.50
2023-03-27T06:35:53.952Z,47.60
2023-03-27T06:38:22.943Z,47.60
2023-03-27T06:40:52.004Z,47.40
2023-03-27T06:43:22.513Z,47.40
2023-03-27T06:45:51.862Z,46.90
2023-03-27T06:48:22.353Z,47.10
2023-03-27T06:50:54.033Z,47.50
2023-03-27T06:53:28.015Z,46.70
2023-03-27T06:55:57.932Z,46.50
2023-03-27T06:58:27.589Z,46.70
2023-03-27T07:00:56.009Z,46.50
2023-03-27T07:03:25.909Z,46.50
2023-03-27T07:05:55.815Z,46.70
2023-03-27T07:08:25.580Z,46.30
2023-03-27T07:11:07.882Z,46.20
2023-03-27T07:13:41.203Z,46.10
2023-03-27T07:16:12.187Z,46.20
2023-03-27T07:18:42.126Z,46.10
2023-03-27T07:21:15.204Z,45.60
2023-03-27T07:23:43.729Z,45.20
2023-03-27T07:26:12.023Z,45.30
2023-03-27T07:28:40.421Z,45.10
2023-03-27T07:31:25.974Z,44.80
2023-03-27T07:33:59.283Z,44.80
2023-03-27T07:36:29.183Z,44.40
2023-03-27T07:38:57.863Z,44.20
2023-03-27T07:41:26.120Z,44.00
2023-03-27T07:43:54.463Z,43.60
2023-03-27T07:46:24.407Z,43.90
2023-03-27T07:48:52.771Z,42.90
2023-03-27T07:51:21.180Z,42.60
2023-03-27T07:53:55.779Z,42.10
2023-03-27T07:56:24.714Z,42.30
2023-03-27T07:58:53.178Z,42.10
2023-03-27T08:01:21.615Z,42.00
2023-03-27T08:03:52.238Z,41.60
2023-03-27T08:06:20.694Z,41.20
2023-03-27T08:08:50.992Z,40.30
2023-03-27T08:11:30.055Z,40.50
2023-03-27T08:13:59.423Z,40.10
2023-03-27T08:16:29.834Z,39.70
2023-03-27T08:19:00.129Z,40.00
2023-03-27T08:21:28.468Z,39.80
2023-03-27T08:23:58.941Z,39.20
2023-03-27T08:26:27.859Z,39.10
2023-03-27T08:28:56.682Z,39.00
2023-03-27T08:31:25.745Z,38.70
2023-03-27T08:33:54.531Z,38.30
2023-03-27T08:36:23.060Z,38.40
2023-03-27T08:38:55.500Z,38.30
2023-03-27T08:41:30.718Z,38.50
2023-03-27T08:44:03.764Z,38.40
2023-03-27T08:46:37.134Z,38.70
2023-03-27T08:49:09.889Z,38.40
2023-03-27T08:51:42.983Z,38.30
2023-03-27T08:54:18.079Z,38.20
2023-03-27T08:56:48.912Z,37.90
2023-03-27T08:59:20.815Z,38.00
2023-03-27T09:01:55.694Z,37.60
2023-03-27T09:04:35.827Z,37.50
2023-03-27T09:07:10.588Z,37.40
2023-03-27T09:09:50.654Z,37.50
2023-03-27T09:12:35.916Z,36.90
2023-03-27T09:15:12.285Z,36.80
2023-03-27T09:17:45.145Z,36.70
2023-03-27T09:20:19.214Z,36.10
2023-03-27T09:22:53.654Z,36.10
2023-03-27T09:25:27.577Z,35.90
2023-03-27T09:27:58.234Z,35.80
2023-03-27T09:30:29.431Z,35.60
2023-03-27T09:33:00.815Z,36.10
2023-03-27T09:35:30.882Z,36.00
2023-03-27T09:38:03.716Z,35.80
2023-03-27T09:40:37.573Z,35.70
2023-03-27T09:43:13.348Z,35.20
2023-03-27T09:45:42.698Z,35.20
2023-03-27T09:48:15.901Z,35.00
2023-03-27T09:50:47.357Z,34.70
2023-03-27T09:53:19.004Z,34.90
2023-03-27T09:55:52.902Z,34.80
2023-03-27T09:58:36.537Z,34.70
2023-03-27T10:01:14.010Z,34.90
2023-03-27T10:03:48.886Z,35.10
2023-03-27T10:06:26.420Z,34.90
2023-03-27T10:08:56.175Z,35.00
2023-03-27T10:11:28.887Z,34.80
2023-03-27T10:14:00.848Z,35.00
2023-03-27T10:16:31.158Z,34.70
2023-03-27T10:19:00.905Z,35.30
2023-03-27T10:21:32.856Z,35.30
2023-03-27T10:24:05.126Z,35.60
2023-03-27T10:26:38.155Z,35.60
2023-03-27T10:29:26.354Z,35.70
2023-03-27T10:31:56.883Z,35.80
2023-03-27T10:34:34.450Z,36.40
2023-03-27T10:37:04.455Z,36.80
2023-03-27T10:39:36.617Z,37.00
2023-03-27T10:42:09.196Z,36.90
2023-03-27T10:44:40.639Z,36.70
2023-03-27T10:47:18.789Z,36.60
2023-03-27T10:49:53.026Z,36.40
2023-03-27T10:52:24.840Z,36.50
2023-03-27T10:55:15.793Z,35.70
2023-03-27T10:57:49.680Z,35.70
2023-03-27T11:00:23.343Z,35.40
2023-03-27T11:02:57.708Z,34.70
2023-03-27T11:05:30.915Z,33.80
2023-03-27T11:08:04.185Z,34.20
2023-03-27T11:10:35.798Z,34.60
2023-03-27T11:13:10.925Z,35.00
2023-03-27T11:15:44.653Z,35.50
2023-03-27T11:18:18.406Z,35.70
2023-03-27T11:20:52.086Z,35.90
2023-03-27T11:23:28.532Z,35.60
2023-03-27T11:25:59.985Z,35.20
2023-03-27T11:28:39.514Z,34.00
2023-03-27T11:31:16.602Z,33.90
2023-03-27T11:33:50.575Z,34.70
2023-03-27T11:36:34.834Z,34.80
2023-03-27T11:39:13.662Z,35.10
2023-03-27T11:41:42.563Z,34.60
2023-03-27T11:44:11.978Z,35.10
2023-03-27T11:46:56.323Z,34.90
2023-03-27T11:49:38.799Z,35.60
2023-03-27T11:52:19.496Z,36.00
2023-03-27T11:55:06.732Z,36.00
2023-03-27T11:57:43.046Z,36.30
2023-03-27T12:00:17.772Z,36.10
2023-03-27T12:03:13.562Z,35.90
2023-03-27T12:05:58.864Z,35.50
2023-03-27T12:08:35.894Z,35.40
2023-03-27T12:11:08.848Z,35.30
2023-03-27T12:14:01.196Z,35.60
2023-03-27T12:17:01.121Z,35.20
2023-03-27T12:19:44.787Z,35.50
2023-03-27T12:22:27.200Z,35.80
2023-03-27T12:25:19.339Z,35.80
2023-03-27T12:27:59.889Z,35.50
2023-03-27T12:30:37.696Z,34.80
2023-03-27T12:33:39.122Z,34.50
2023-03-27T12:36:13.453Z,34.50
2023-03-27T12:38:43.500Z,33.90
2023-03-27T12:41:23.350Z,33.40
2023-03-27T12:43:57.236Z,32.90
2023-03-27T12:46:39.913Z,32.90
2023-03-27T12:49:47.689Z,32.30
2023-03-27T12:52:39.329Z,32.20
2023-03-27T12:55:32.394Z,32.40
2023-03-27T12:58:02.794Z,32.00
2023-03-27T13:00:32.532Z,32.20
2023-03-27T13:03:43.193Z,32.60
2023-03-27T13:06:40.216Z,31.60
2023-03-27T13:09:49.671Z,31.40
2023-03-27T13:12:59.676Z,31.40
2023-03-27T13:16:19.890Z,31.30
2023-03-27T13:19:09.798Z,31.60
2023-03-27T13:21:51.913Z,31.40
2023-03-27T13:24:35.297Z,31.40
2023-03-27T13:27:22.812Z,30.70
2023-03-27T13:30:01.531Z,30.30
2023-03-27T13:33:11.026Z,30.20
2023-03-27T13:35:42.919Z,29.60
2023-03-27T13:38:13.606Z,29.30
2023-03-27T13:40:44.942Z,29.20
2023-03-27T13:43:25.362Z,29.50
2023-03-27T13:46:19.466Z,29.30
2023-03-27T13:49:11.877Z,29.40
2023-03-27T13:52:27.656Z,28.80
2023-03-27T13:55:05.993Z,29.00
2023-03-27T13:57:55.530Z,28.70
2023-03-27T14:00:54.725Z,28.20
2023-03-27T14:03:53.333Z,28.20
2023-03-27T14:07:07.781Z,27.60
2023-03-27T14:09:51.337Z,28.70
2023-03-27T14:12:48.282Z,29.20
2023-03-27T14:15:49.993Z,29.40
2023-03-27T14:18:58.333Z,29.30
2023-03-27T14:21:38.412Z,29.60
2023-03-27T14:24:19.079Z,30.20
2023-03-27T14:26:48.897Z,30.00
2023-03-27T14:29:17.442Z,30.10
2023-03-27T14:31:47.626Z,30.00
2023-03-27T14:34:22.484Z,30.60
2023-03-27T14:36:52.289Z,31.30
2023-03-27T14:39:23.163Z,31.50
2023-03-27T14:41:55.836Z,31.80
2023-03-27T14:44:25.255Z,31.50
2023-03-27T14:47:01.458Z,30.10
2023-03-27T14:49:36.256Z,30.50
2023-03-27T14:52:07.840Z,31.10
2023-03-27T14:54:44.951Z,31.50
2023-03-27T14:57:17.897Z,32.20
2023-03-27T14:59:47.584Z,32.20
2023-03-27T15:02:23.260Z,32.60
2023-03-27T15:04:51.756Z,33.30
2023-03-27T15:07:22.584Z,33.30
2023-03-27T15:10:03.627Z,33.90
2023-03-27T15:12:32.081Z,34.60
2023-03-27T15:15:00.402Z,35.10
2023-03-27T15:17:34.553Z,35.10
2023-03-27T15:20:09.933Z,35.60
2023-03-27T15:22:43.198Z,35.90
2023-03-27T15:25:17.655Z,36.60
2023-03-27T15:27:53.036Z,36.70
2023-03-27T15:30:27.415Z,36.50
2023-03-27T15:33:02.109Z,36.80
2023-03-27T15:35:35.223Z,36.80
2023-03-27T15:38:05.889Z,36.70
2023-03-27T15:40:40.349Z,36.90
2023-03-27T15:43:23.430Z,36.60
2023-03-27T15:46:15.497Z,37.10
2023-03-27T15:48:47.494Z,37.10
2023-03-27T15:51:30.106Z,36.90
2023-03-27T15:53:58.824Z,36.90
2023-03-27T15:56:30.365Z,37.10
2023-03-27T15:59:01.469Z,37.00
2023-03-27T16:01:34.807Z,37.10
2023-03-27T16:04:08.401Z,37.10
2023-03-27T16:06:39.824Z,37.00
2023-03-27T16:09:22.558Z,37.30
2023-03-27T16:11:53.230Z,37.30
2023-03-27T16:14:31.660Z,37.40
2023-03-27T16:17:20.781Z,37.70
2023-03-27T16:19:56.478Z,38.00
2023-03-27T16:22:26.520Z,38.20
2023-03-27T16:24:55.721Z,38.60
2023-03-27T16:27:27.476Z,38.70
2023-03-27T16:29:56.466Z,38.80
2023-03-27T16:32:25.255Z,39.50
2023-03-27T16:34:56.069Z,39.20
2023-03-27T16:37:27.155Z,39.40
2023-03-27T16:39:57.047Z,39.50
2023-03-27T16:42:26.645Z,39.40
2023-03-27T16:44:55.331Z,39.40
2023-03-27T16:47:24.843Z,39.40
2023-03-27T16:50:10.468Z,39.20
2023-03-27T16:52:40.062Z,39.30
2023-03-27T16:55:09.805Z,39.30
2023-03-27T16:57:38.961Z,39.50
2023-03-27T17:00:11.109Z,39.60
2023-03-27T17:02:40.463Z,39.40
2023-03-27T17:05:11.468Z,39.40
2023-03-27T17:07:41.833Z,39.60
2023-03-27T17:10:11.541Z,39.50
2023-03-27T17:12:42.051Z,39.80
2023-03-27T17:15:12.084Z,39.60
2023-03-27T17:17:40.411Z,40.00
2023-03-27T17:20:12.249Z,39.90
2023-03-27T17:22:41.163Z,40.10
2023-03-27T17:25:11.566Z,40.10
2023-03-27T17:27:40.702Z,40.20
2023-03-27T17:30:10.128Z,40.00
2023-03-27T17:32:39.585Z,39.90
2023-03-27T17:35:08.506Z,40.00
2023-03-27T17:37:38.242Z,40.20
2023-03-27T17:40:09.780Z,40.30
2023-03-27T17:42:38.893Z,40.60
2023-03-27T17:45:07.597Z,40.80
2023-03-27T17:47:37.137Z,41.00
2023-03-27T17:50:06.936Z,40.90
2023-03-27T17:52:35.648Z,40.70
2023-03-27T17:55:06.561Z,40.70
2023-03-27T17:57:38.033Z,40.90
2023-03-27T18:00:07.631Z,40.70
2023-03-27T18:02:36.474Z,40.50
2023-03-27T18:05:07.367Z,40.60
2023-03-27T18:07:36.572Z,41.20
2023-03-27T18:10:08.505Z,41.60
2023-03-27T18:12:37.341Z,41.60
2023-03-27T18:15:08.607Z,41.90
2023-03-27T18:17:39.057Z,41.80
2023-03-27T18:20:10.362Z,42.00
2023-03-27T18:22:40.183Z,41.60
2023-03-27T18:25:11.631Z,41.60
2023-03-27T18:27:40.900Z,41.00
2023-03-27T18:30:13.863Z,41.20
2023-03-27T18:32:44.753Z,41.50
2023-03-27T18:35:16.123Z,41.30
2023-03-27T18:37:45.407Z,41.30
2023-03-27T18:40:18.376Z,41.50
2023-03-27T18:42:47.934Z,41.60
2023-03-27T18:45:18.425Z,41.60
2023-03-27T18:47:47.190Z,41.40
2023-03-27T18:50:16.761Z,41.30
2023-03-27T18:52:45.426Z,40.90
2023-03-27T18:55:15.149Z,41.20
2023-03-27T18:57:43.688Z,41.30
2023-03-27T19:00:18.424Z,41.40
2023-03-27T19:02:47.942Z,41.20
2023-03-27T19:05:17.895Z,41.20
2023-03-27T19:07:47.306Z,41.20
2023-03-27T19:10:17.439Z,41.40
2023-03-27T19:12:45.852Z,41.60
2023-03-27T19:17:49.283Z,41.40
2023-03-27T19:20:18.166Z,41.70
2023-03-27T19:22:48.876Z,41.80
2023-03-27T19:25:19.168Z,41.40
2023-03-27T19:27:48.983Z,41.60
2023-03-27T19:30:18.438Z,42.00
2023-03-27T19:32:47.100Z,41.70
2023-03-27T19:35:15.688Z,41.80
2023-03-27T19:37:44.194Z,41.90
2023-03-27T19:40:14.372Z,41.70
2023-03-27T19:42:44.531Z,41.90
2023-03-27T19:45:16.420Z,42.00
2023-03-27T19:47:47.444Z,42.10
2023-03-27T19:50:17.177Z,42.20
2023-03-27T19:52:51.593Z,42.20
2023-03-27T19:55:26.480Z,42.40
2023-03-27T19:57:56.667Z,41.90
2023-03-27T20:00:25.475Z,42.20
2023-03-27T20:02:54.891Z,41.90
2023-03-27T20:05:23.637Z,42.40
2023-03-27T20:07:53.012Z,42.20
2023-03-27T20:10:22.115Z,42.10
2023-03-27T20:12:50.560Z,42.00
2023-03-27T20:15:20.861Z,41.90
2023-03-27T20:17:49.305Z,42.20
2023-03-27T20:20:18.730Z,42.20
2023-03-27T20:22:57.615Z,42.20
2023-03-27T20:25:28.333Z,42.10
2023-03-27T20:27:57.423Z,42.50
2023-03-27T20:30:27.986Z,42.40
2023-03-27T20:32:57.241Z,42.30
2023-03-27T20:35:28.635Z,42.20
2023-03-27T20:38:04.843Z,42.40
2023-03-27T20:40:52.833Z,42.90
2023-03-27T20:43:22.935Z,42.40
2023-03-27T20:45:55.101Z,42.60
2023-03-27T20:48:23.631Z,42.50
2023-03-27T20:50:55.354Z,42.40
2023-03-27T20:53:29.997Z,42.70
2023-03-27T20:56:01.922Z,42.40
2023-03-27T20:58:33.090Z,42.80
2023-03-27T21:01:05.138Z,42.60
2023-03-27T21:03:38.971Z,42.60
2023-03-27T21:06:10.052Z,42.90
2023-03-27T21:08:41.285Z,42.90
2023-03-27T21:11:10.071Z,43.10
2023-03-27T21:13:38.784Z,42.90
2023-03-27T21:16:09.746Z,43.20
2023-03-27T21:18:39.036Z,43.20
2023-03-27T21:21:07.831Z,42.90
2023-03-27T21:23:37.080Z,42.90
2023-03-27T21:26:05.617Z,43.10
2023-03-27T21:28:34.238Z,43.10
2023-03-27T21:31:09.071Z,42.70
2023-03-27T21:33:38.441Z,43.10
2023-03-27T21:36:07.220Z,42.80
2023-03-27T21:38:35.598Z,42.80
2023-03-27T21:41:06.636Z,42.90
2023-03-27T21:43:35.018Z,43.10
2023-03-27T21:46:03.722Z,42.80
2023-03-27T21:48:34.347Z,43.00
2023-03-27T21:51:03.858Z,43.10
2023-03-27T21:53:32.754Z,42.90
2023-03-27T21:56:01.304Z,42.80
2023-03-27T21:58:31.036Z,42.90
2023-03-27T22:01:00.549Z,43.30
2023-03-27T22:03:29.932Z,43.20
2023-03-27T22:06:11.776Z,42.70
2023-03-27T22:08:43.275Z,42.90
2023-03-27T22:11:12.692Z,43.00
2023-03-27T22:13:43.512Z,43.00
2023-03-27T22:16:14.670Z,43.10
2023-03-27T22:18:44.233Z,43.20
2023-03-27T22:21:18.935Z,43.30
2023-03-27T22:23:49.112Z,43.10
2023-03-27T22:26:17.657Z,43.30
2023-03-27T22:28:46.260Z,43.10
2023-03-27T22:31:14.538Z,43.00
2023-03-27T22:33:42.987Z,43.00
2023-03-27T22:37:13.793Z,43.20
2023-03-27T22:40:02.001Z,43.50
2023-03-27T22:42:31.356Z,43.40
2023-03-27T22:44:59.752Z,43.20
2023-03-27T22:47:28.730Z,43.30
2023-03-27T22:49:57.617Z,43.50
2023-03-27T22:52:26.239Z,43.50
2023-03-27T22:54:54.887Z,43.20
2023-03-27T22:57:24.493Z,43.50
2023-03-27T22:59:52.825Z,43.20
2023-03-27T23:02:21.501Z,43.10
2023-03-27T23:04:49.915Z,43.10
2023-03-27T23:07:18.128Z,43.10
2023-03-27T23:09:46.550Z,43.40
2023-03-27T23:12:15.290Z,43.10
2023-03-27T23:14:44.925Z,43.10
2023-03-27T23:17:13.342Z,42.90
2023-03-27T23:19:41.997Z,43.50
2023-03-27T23:22:10.829Z,43.30
2023-03-27T23:24:39.134Z,43.20
2023-03-27T23:27:08.475Z,43.30
2023-03-27T23:29:37.301Z,43.10
2023-03-27T23:32:07.370Z,43.40
2023-03-27T23:34:37.464Z,43.60
2023-03-27T23:37:06.058Z,43.20
2023-03-27T23:39:34.627Z,43.40
2023-03-27T23:42:03.723Z,43.60
2023-03-27T23:44:32.469Z,43.50
2023-03-27T23:47:01.346Z,43.20
2023-03-27T23:49:31.393Z,43.50
2023-03-27T23:51:59.914Z,43.50
2023-03-27T23:54:28.133Z,43.20
2023-03-27T23:56:56.449Z,43.50
2023-03-27T23:59:25.039Z,43.50
